Time;durP1;ratioP1;P1;durP2;ratioP2;P2;SDS_P1;SDS_P2;PMS_P1;PMS_P2;Temp;Humidity;BMP_temperature;BMP_pressure;BME280_temperature;BME280_humidity;BME280_pressure;Samples;Min_cycle;Max_cycle;Signal;HPM_P1;HPM_P2
2022/05/05 07:58:50;;;;;;;46.42;32.88;;;;;;;14.39;64.73;102016.91;5279679;28;20395;-72
2022/05/05 08:01:22;;;;;;;46.13;32.50;;;;;;;14.59;64.47;102016.00;5263923;28;20043;-72
2022/05/05 08:03:53;;;;;;;45.50;32.78;;;;;;;14.67;64.02;102018.19;5259076;28;20045;-73
2022/05/05 08:06:24;;;;;;;40.67;31.88;;;;;;;14.77;63.87;102018.13;5259127;28;20499;-72
2022/05/05 08:08:56;;;;;;;41.95;31.08;;;;;;;14.81;63.55;102022.00;5258948;28;20029;-72
2022/05/05 08:11:30;;;;;;;35.53;27.10;;;;;;;14.88;62.40;102025.31;5259485;28;20063;-73
2022/05/05 08:14:01;;;;;;;33.85;28.05;;;;;;;15.06;61.63;102022.94;5258440;28;20021;-73
2022/05/05 08:16:36;;;;;;;37.00;29.80;;;;;;;15.07;61.24;102024.63;5259826;28;20031;-72
2022/05/05 08:19:07;;;;;;;47.03;36.80;;;;;;;14.94;61.73;102023.31;5258372;28;20622;-72
2022/05/05 08:21:38;;;;;;;51.05;42.75;;;;;;;14.91;62.33;102021.94;5264041;28;20119;-72
2022/05/05 08:29:50;;;;;;;42.13;31.48;;;;;;;15.13;62.07;102031.81;5279834;28;20061;-73
2022/05/05 08:32:21;;;;;;;36.10;28.70;;;;;;;15.06;61.56;102032.16;5280116;28;20052;-72
2022/05/05 08:34:52;;;;;;;47.85;36.95;;;;;;;15.07;61.47;102035.78;5274410;28;20051;-72
2022/05/05 08:37:24;;;;;;;46.88;36.70;;;;;;;15.06;62.34;102039.69;5259161;28;20041;-72
2022/05/05 08:39:55;;;;;;;39.97;30.55;;;;;;;14.98;62.38;102035.56;5273133;28;20025;-72
2022/05/05 08:42:26;;;;;;;38.53;30.58;;;;;;;14.95;62.56;102041.72;5272207;28;20126;-72
2022/05/05 08:45:00;;;;;;;35.92;28.38;;;;;;;14.91;62.57;102043.47;5294177;28;20026;-72
2022/05/05 08:47:32;;;;;;;36.67;28.85;;;;;;;14.91;62.08;102046.25;5281582;28;20028;-72
2022/05/05 08:50:08;;;;;;;40.03;30.17;;;;;;;14.97;61.94;102053.47;5276018;28;20548;-72
2022/05/05 08:52:48;;;;;;;39.00;31.60;;;;;;;15.01;62.05;102048.97;5263063;28;20383;-72
2022/05/05 08:55:21;;;;;;;43.28;29.35;;;;;;;14.97;62.20;102054.28;5287431;28;20037;-72
2022/05/05 08:57:52;;;;;;;42.10;31.17;;;;;;;14.97;62.20;102051.50;5258448;28;20045;-73
2022/05/05 09:00:24;;;;;;;41.25;31.50;;;;;;;15.03;62.11;102049.50;5258194;28;20029;-73
2022/05/05 09:02:57;;;;;;;42.60;33.15;;;;;;;15.14;62.60;102053.91;5266073;28;20419;-73
2022/05/05 09:05:46;;;;;;;44.83;34.25;;;;;;;15.16;62.64;102054.44;5277915;28;20372;-73
2022/05/05 09:08:23;;;;;;;39.60;30.02;;;;;;;15.26;62.17;102063.84;5278528;28;20036;-73
2022/05/05 09:10:59;;;;;;;44.30;32.40;;;;;;;15.26;62.29;102059.09;5259234;28;20406;-73
2022/05/05 09:13:36;;;;;;;41.17;30.80;;;;;;;15.30;62.30;102056.56;5260151;28;20025;-73
2022/05/05 09:16:08;;;;;;;44.45;33.08;;;;;;;15.30;62.26;102060.19;5244115;28;20079;-73
2022/05/05 09:18:39;;;;;;;39.17;30.98;;;;;;;15.20;62.45;102060.28;5244383;28;20026;-72
2022/05/05 09:21:11;;;;;;;41.47;33.90;;;;;;;15.25;62.42;102071.41;5247672;28;20033;-73
2022/05/05 09:26:32;;;;;;;42.05;32.65;;;;;;;15.30;62.11;102067.75;5264859;28;20025;-71
2022/05/05 09:29:19;;;;;;;43.03;31.98;;;;;;;15.29;62.12;102068.84;5268276;28;20405;-71
2022/05/05 09:31:50;;;;;;;41.25;31.85;;;;;;;15.35;62.17;102076.91;5277021;28;20020;-71
2022/05/05 09:34:22;;;;;;;37.95;30.75;;;;;;;15.42;61.75;102071.00;5280730;28;20021;-70
2022/05/05 09:36:53;;;;;;;39.88;32.05;;;;;;;15.52;61.71;102072.84;5263803;28;20029;-70
2022/05/05 09:39:34;;;;;;;38.78;29.60;;;;;;;15.44;61.32;102077.09;5264579;28;20033;-71
2022/05/05 09:42:05;;;;;;;43.80;31.70;;;;;;;15.48;61.84;102072.63;5260053;28;20496;-70
2022/05/05 09:44:49;;;;;;;40.88;32.47;;;;;;;15.57;61.99;102079.25;5262802;28;20112;-71
2022/05/05 09:47:23;;;;;;;43.08;33.85;;;;;;;15.40;62.23;102088.06;5256824;28;20068;-71
2022/05/05 09:49:58;;;;;;;49.50;34.10;;;;;;;15.60;62.48;102086.22;5264313;28;20037;-74
2022/05/05 09:59:04;;;;;;;34.55;25.15;;;;;;;15.80;61.91;102093.63;5247308;28;20484;-78
2022/05/05 10:01:41;;;;;;;74.38;63.50;;;;;;;15.84;61.29;102095.50;5253717;28;20041;-78
2022/05/05 10:04:17;;;;;;;45.78;34.85;;;;;;;15.89;60.84;102099.41;5259147;28;20028;-79
2022/05/05 10:06:49;;;;;;;42.63;31.50;;;;;;;15.85;60.56;102090.78;5263837;28;20064;-80
2022/05/05 10:09:23;;;;;;;44.88;33.83;;;;;;;15.89;60.12;102088.19;5260340;28;20025;-80
2022/05/05 10:11:55;;;;;;;41.65;32.63;;;;;;;15.89;59.98;102083.44;5253993;28;20067;-75
2022/05/05 10:14:32;;;;;;;38.42;31.50;;;;;;;15.90;59.74;102093.50;5260385;28;20030;-78
2022/05/05 10:17:04;;;;;;;36.10;29.30;;;;;;;16.03;60.44;102090.00;5247720;28;20346;-78
2022/05/05 10:19:39;;;;;;;42.28;33.00;;;;;;;16.06;60.10;102089.41;5279723;28;20119;-74
2022/05/05 10:22:20;;;;;;;37.38;32.92;;;;;;;16.07;59.65;102082.66;5260914;28;20435;-79
2022/05/05 10:25:05;;;;;;;37.60;31.92;;;;;;;16.26;59.80;102084.72;5266557;28;20032;-78
2022/05/05 10:27:44;;;;;;;29.52;26.10;;;;;;;16.31;59.79;102084.66;5256524;28;20029;-79
2022/05/05 10:30:17;;;;;;;33.75;24.42;;;;;;;16.32;59.42;102094.72;5259393;28;20052;-78
2022/05/05 10:32:48;;;;;;;35.20;31.23;;;;;;;16.41;59.20;102090.13;5244993;28;20112;-78
2022/05/05 10:35:19;;;;;;;42.20;36.38;;;;;;;16.29;58.27;102093.34;5251200;28;20120;-78
2022/05/05 10:37:50;;;;;;;39.97;33.33;;;;;;;16.34;58.80;102084.06;5250047;28;20035;-80
2022/05/05 10:40:23;;;;;;;41.70;34.28;;;;;;;16.51;58.37;102081.59;5263024;28;20284;-78
2022/05/05 10:42:57;;;;;;;38.78;33.72;;;;;;;16.51;57.99;102089.16;5243194;28;20112;-76
2022/05/05 10:45:32;;;;;;;36.85;32.83;;;;;;;16.55;57.70;102084.63;5248864;28;20044;-77
2022/05/05 10:48:06;;;;;;;37.38;32.80;;;;;;;16.45;57.43;102090.34;5262321;28;20067;-78
2022/05/05 10:50:54;;;;;;;38.60;34.43;;;;;;;16.35;57.80;102096.09;5265958;28;20071;-79
2022/05/05 10:53:34;;;;;;;52.88;46.08;;;;;;;16.49;57.90;102086.66;5263689;28;20032;-78
2022/05/05 10:56:25;;;;;;;44.83;38.88;;;;;;;16.60;57.84;102087.34;5248435;28;20076;-79
2022/05/05 10:59:03;;;;;;;42.05;35.70;;;;;;;16.44;57.42;102092.31;5245660;28;20515;-78
2022/05/05 11:01:46;;;;;;;39.08;34.80;;;;;;;16.60;57.94;102090.16;5247516;28;20060;-77
2022/05/05 11:04:18;;;;;;;44.78;37.08;;;;;;;16.61;57.79;102088.19;5260182;28;20036;-80
2022/05/05 11:07:25;;;;;;;42.33;35.45;;;;;;;16.78;57.09;102091.34;5260870;28;20029;-78
2022/05/05 11:09:58;;;;;;;52.60;38.40;;;;;;;16.82;57.20;102095.22;5252578;28;20101;-78
2022/05/05 11:12:34;;;;;;;40.50;33.50;;;;;;;16.78;56.74;102093.31;5254922;28;20099;-78
2022/05/05 11:24:01;;;;;;;34.28;30.55;;;;;;;17.29;54.42;102082.16;5248717;28;20025;-79
2022/05/05 11:26:33;;;;;;;35.00;28.80;;;;;;;17.35;53.78;102080.09;5270118;28;20025;-79
2022/05/05 11:29:15;;;;;;;37.15;28.75;;;;;;;17.53;53.64;102081.19;5255210;28;20037;-80
2022/05/05 11:31:57;;;;;;;30.15;25.90;;;;;;;17.54;53.41;102082.88;5248062;28;20444;-78
2022/05/05 11:34:34;;;;;;;32.00;28.25;;;;;;;17.49;53.01;102086.59;5266597;28;20021;-78
2022/05/05 11:37:08;;;;;;;34.15;28.98;;;;;;;17.54;53.04;102078.09;5263785;28;20582;-78
2022/05/05 11:39:40;;;;;;;37.35;29.85;;;;;;;17.72;53.38;102082.00;5262826;28;20043;-76
2022/05/05 11:42:11;;;;;;;38.08;29.63;;;;;;;17.72;53.20;102084.78;5247728;28;20017;-77
2022/05/05 11:44:44;;;;;;;34.13;29.50;;;;;;;17.86;53.34;102084.84;5240501;28;20034;-76
2022/05/05 11:47:18;;;;;;;34.25;30.48;;;;;;;17.79;52.99;102082.47;5242435;28;20039;-80
2022/05/05 11:49:52;;;;;;;34.58;30.50;;;;;;;17.57;52.83;102076.66;5261865;28;20025;-79
2022/05/05 11:52:25;;;;;;;35.40;29.42;;;;;;;17.74;53.24;102076.91;5267126;28;20037;-78
2022/05/05 11:54:57;;;;;;;33.63;28.65;;;;;;;17.81;52.35;102077.34;5265484;28;20033;-79
2022/05/05 11:57:39;;;;;;;32.08;28.00;;;;;;;17.80;52.36;102077.66;5263411;28;20485;-78
2022/05/05 12:03:06;;;;;;;35.57;31.80;;;;;;;17.94;51.86;102072.91;5242990;28;20038;-77
2022/05/05 12:05:37;;;;;;;43.08;38.45;;;;;;;17.93;51.83;102068.44;5255064;28;20780;-77
2022/05/05 12:08:08;;;;;;;32.00;28.52;;;;;;;17.97;51.74;102061.06;5263813;28;20036;-77
2022/05/05 12:10:39;;;;;;;30.83;27.10;;;;;;;18.05;50.76;102070.75;5264362;28;20029;-76
2022/05/05 12:13:13;;;;;;;33.60;27.60;;;;;;;17.77;51.32;102062.25;5262883;28;20078;-76
2022/05/05 12:15:51;;;;;;;36.22;28.33;;;;;;;17.74;51.60;102071.28;5250934;28;20284;-75
2022/05/05 12:18:22;;;;;;;33.13;27.45;;;;;;;17.81;52.07;102063.31;5240886;28;20041;-74
2022/05/05 12:20:54;;;;;;;32.40;28.23;;;;;;;17.69;52.81;102062.13;5256148;28;20029;-76
2022/05/05 12:23:26;;;;;;;32.70;29.35;;;;;;;17.56;52.56;102059.00;5261951;28;20017;-75
2022/05/05 12:26:00;;;;;;;35.85;29.75;;;;;;;17.74;52.40;102062.88;5244273;28;20022;-74
2022/05/05 12:28:49;;;;;;;31.73;28.13;;;;;;;18.00;52.57;102062.44;5257322;28;20037;-74
2022/05/05 12:31:21;;;;;;;31.73;28.42;;;;;;;18.19;51.26;102057.53;5261675;28;20052;-74
2022/05/05 12:33:52;;;;;;;29.92;25.70;;;;;;;18.21;51.90;102058.06;5250176;28;20028;-74
2022/05/05 12:36:28;;;;;;;32.30;28.33;;;;;;;18.41;51.30;102054.00;5257926;28;20030;-74
2022/05/05 12:39:18;;;;;;;30.73;27.80;;;;;;;18.74;50.89;102061.41;5242190;28;20033;-75
2022/05/05 12:41:56;;;;;;;29.02;26.00;;;;;;;18.78;49.64;102060.50;5261830;28;20033;-76
2022/05/05 12:44:35;;;;;;;28.35;24.25;;;;;;;19.00;48.83;102068.16;5262779;28;20024;-76
2022/05/05 12:47:06;;;;;;;27.70;24.63;;;;;;;18.74;48.93;102061.41;5264741;28;20361;-76
2022/05/05 12:49:43;;;;;;;32.10;28.80;;;;;;;18.66;48.98;102058.22;5264326;28;20074;-76
2022/05/05 13:00:59;;;;;;;30.42;27.23;;;;;;;18.53;50.00;102070.28;5264702;28;20036;-74
2022/05/05 13:03:30;;;;;;;29.90;25.08;;;;;;;18.58;50.04;102075.78;5264913;28;20029;-75
2022/05/05 13:06:02;;;;;;;29.90;26.95;;;;;;;18.46;49.31;102069.91;5259053;28;20040;-74
2022/05/05 13:08:33;;;;;;;27.50;24.25;;;;;;;18.46;49.43;102067.91;5264674;28;20033;-74
2022/05/05 13:11:05;;;;;;;28.65;23.98;;;;;;;18.34;48.53;102066.78;5255969;28;20107;-74
2022/05/05 13:13:36;;;;;;;27.83;24.83;;;;;;;18.45;47.95;102065.41;5243999;28;20519;-74
2022/05/05 13:16:08;;;;;;;28.83;25.98;;;;;;;18.47;48.79;102061.16;5259499;28;20041;-74
2022/05/05 13:18:39;;;;;;;80.15;71.72;;;;;;;18.41;48.50;102067.22;5262836;28;20045;-75
2022/05/05 13:21:11;;;;;;;27.05;24.33;;;;;;;18.47;48.49;102061.16;5264761;28;20380;-75
2022/05/05 13:23:42;;;;;;;26.92;24.23;;;;;;;18.44;48.42;102069.38;5253195;28;20435;-73
2022/05/05 13:26:14;;;;;;;30.02;26.88;;;;;;;18.50;49.18;102070.91;5243817;28;20033;-74
2022/05/05 13:28:45;;;;;;;28.92;25.90;;;;;;;18.39;50.29;102070.31;5257396;28;20090;-73
2022/05/05 13:31:17;;;;;;;30.58;26.20;;;;;;;18.38;50.42;102067.81;5264984;28;20054;-73
2022/05/05 13:33:48;;;;;;;28.40;25.30;;;;;;;18.51;50.81;102068.94;5264758;28;20028;-75
2022/05/05 13:36:19;;;;;;;30.02;26.20;;;;;;;18.47;50.42;102065.94;5263681;28;20107;-74
2022/05/05 13:38:51;;;;;;;31.67;26.95;;;;;;;18.33;50.62;102070.72;5264696;28;20028;-75
2022/05/05 13:41:22;;;;;;;30.25;27.05;;;;;;;18.42;50.62;102063.25;5263849;28;20033;-75
2022/05/05 13:43:53;;;;;;;36.00;29.67;;;;;;;18.43;50.60;102076.13;5263605;28;20029;-76
2022/05/05 13:46:25;;;;;;;66.65;59.58;;;;;;;18.44;50.49;102080.63;5250788;28;20061;-76
2022/05/05 13:48:57;;;;;;;29.52;26.38;;;;;;;18.36;50.96;102075.75;5244156;28;20125;-75
2022/05/05 13:51:28;;;;;;;35.85;29.50;;;;;;;18.52;51.31;102082.69;5242797;28;20092;-75
2022/05/05 13:53:59;;;;;;;30.83;27.55;;;;;;;18.59;50.92;102076.66;5243498;28;20021;-74
2022/05/05 13:56:31;;;;;;;33.90;29.40;;;;;;;18.52;51.02;102077.06;5243608;28;20362;-75
2022/05/05 13:59:03;;;;;;;31.67;28.35;;;;;;;18.49;51.60;102069.28;5242411;28;20404;-76
2022/05/05 14:01:36;;;;;;;33.22;29.08;;;;;;;18.55;50.76;102073.63;5247810;28;20067;-76
2022/05/05 14:04:07;;;;;;;33.00;28.60;;;;;;;18.46;51.27;102072.72;5263449;28;20037;-76
2022/05/05 14:06:38;;;;;;;32.53;29.02;;;;;;;18.60;50.80;102076.31;5264023;28;20033;-77
2022/05/05 14:12:11;;;;;;;32.42;29.05;;;;;;;18.69;50.57;102066.00;5263124;28;20029;-76
2022/05/05 14:14:43;;;;;;;32.70;29.50;;;;;;;18.63;50.06;102081.31;5263249;28;20025;-76
2022/05/05 14:17:17;;;;;;;37.60;31.23;;;;;;;18.57;49.96;102074.16;5263638;28;20052;-76
2022/05/05 14:19:48;;;;;;;31.50;28.20;;;;;;;18.72;50.01;102067.34;5247946;28;20025;-76
2022/05/05 14:22:19;;;;;;;33.25;29.17;;;;;;;18.45;49.44;102074.66;5243020;28;20056;-76
2022/05/05 14:24:50;;;;;;;31.25;27.98;;;;;;;18.63;50.01;102070.06;5246885;28;20375;-75
2022/05/05 14:27:22;;;;;;;32.03;28.50;;;;;;;18.75;49.96;102075.19;5262911;28;21737;-78
2022/05/05 14:29:53;;;;;;;32.45;28.92;;;;;;;18.76;49.48;102076.00;5261551;28;20040;-80
2022/05/05 14:32:24;;;;;;;31.73;28.60;;;;;;;18.75;49.03;102077.13;5248338;28;20041;-77
2022/05/05 14:34:55;;;;;;;31.42;28.17;;;;;;;18.74;49.34;102067.03;5253385;28;20025;-79
2022/05/05 14:37:27;;;;;;;30.73;27.52;;;;;;;18.72;48.78;102077.78;5250645;28;20021;-76
2022/05/05 14:39:58;;;;;;;34.33;30.17;;;;;;;18.92;48.89;102074.53;5264518;28;20116;-76
2022/05/05 14:42:29;;;;;;;34.10;30.60;;;;;;;18.94;48.29;102079.81;5264198;28;20021;-77
2022/05/05 14:45:01;;;;;;;33.10;29.48;;;;;;;18.81;48.65;102073.09;5263223;28;20465;-75
2022/05/05 14:47:40;;;;;;;33.63;30.23;;;;;;;18.96;48.01;102081.16;5246932;28;20480;-76
2022/05/05 14:50:11;;;;;;;31.83;28.73;;;;;;;19.00;47.54;102085.00;5254685;28;20029;-76
2022/05/05 14:52:43;;;;;;;29.13;26.10;;;;;;;19.05;48.29;102082.09;5248216;28;20040;-77
2022/05/05 14:55:14;;;;;;;25.00;22.48;;;;;;;19.05;46.77;102078.44;5262246;28;20021;-76
2022/05/05 14:57:46;;;;;;;28.67;23.30;;;;;;;18.90;46.22;102079.63;5263044;28;20052;-76
2022/05/05 15:00:18;;;;;;;25.88;23.30;;;;;;;19.10;46.52;102084.78;5261920;28;20104;-75
2022/05/05 15:02:49;;;;;;;28.00;24.23;;;;;;;19.03;46.26;102075.94;5249837;28;20025;-76
2022/05/05 15:05:22;;;;;;;26.88;24.27;;;;;;;18.98;46.31;102081.69;5267749;28;20044;-76
2022/05/05 15:07:53;;;;;;;26.48;23.67;;;;;;;19.17;46.75;102077.88;5256570;28;20033;-75
2022/05/05 15:10:24;;;;;;;27.25;24.48;;;;;;;19.15;46.06;102074.53;5251296;28;20461;-74
2022/05/05 15:12:55;;;;;;;22.40;20.20;;;;;;;19.27;46.04;102077.59;5247181;28;20021;-74
2022/05/05 15:15:27;;;;;;;23.80;20.20;;;;;;;19.19;45.67;102078.38;5252145;28;20022;-74
2022/05/05 15:17:58;;;;;;;26.25;22.23;;;;;;;19.13;46.01;102077.69;5242369;28;20539;-73
2022/05/05 15:20:29;;;;;;;23.33;20.75;;;;;;;19.21;46.02;102073.28;5249138;28;20017;-73
2022/05/05 15:23:02;;;;;;;30.55;27.58;;;;;;;19.24;46.34;102072.63;5250961;28;20115;-74
2022/05/05 15:25:33;;;;;;;31.83;28.45;;;;;;;19.19;46.55;102076.41;5262166;28;20025;-75
2022/05/05 15:28:04;;;;;;;32.17;28.88;;;;;;;19.13;46.86;102079.66;5244862;28;20056;-76
2022/05/05 15:30:36;;;;;;;25.88;23.15;;;;;;;19.19;46.89;102081.19;5244573;28;20028;-75
2022/05/05 15:33:07;;;;;;;25.75;23.10;;;;;;;19.21;46.71;102078.91;5262540;28;20029;-74
2022/05/05 15:35:38;;;;;;;28.70;25.90;;;;;;;19.11;46.71;102082.78;5261311;28;20029;-70
2022/05/05 15:38:10;;;;;;;28.35;25.38;;;;;;;19.14;47.08;102081.31;5261021;28;20469;-77
2022/05/05 15:40:41;;;;;;;25.23;22.52;;;;;;;19.19;46.30;102084.00;5250613;28;20086;-75
2022/05/05 15:43:13;;;;;;;24.23;21.73;;;;;;;19.25;46.15;102075.13;5260415;28;20032;-75
2022/05/05 15:45:47;;;;;;;28.27;24.48;;;;;;;19.13;46.25;102079.66;5250364;28;20487;-75
2022/05/05 15:48:20;;;;;;;26.60;24.00;;;;;;;19.23;45.81;102083.06;5261985;28;20028;-75
2022/05/05 15:50:52;;;;;;;23.33;20.45;;;;;;;19.13;45.35;102079.66;5260975;28;20344;-74
2022/05/05 15:53:25;;;;;;;21.02;18.10;;;;;;;19.16;45.54;102084.66;5262137;28;20036;-74
2022/05/05 15:55:57;;;;;;;20.42;18.10;;;;;;;19.22;45.56;102086.19;5246394;28;20017;-75
2022/05/05 15:58:28;;;;;;;21.77;19.00;;;;;;;19.12;45.54;102081.63;5251169;28;20041;-75
2022/05/05 16:01:00;;;;;;;19.60;17.63;;;;;;;19.16;46.36;102082.66;5248917;28;20025;-74
2022/05/05 16:03:33;;;;;;;24.52;18.00;;;;;;;19.15;45.87;102082.97;5247792;28;20448;-76
2022/05/05 16:06:06;;;;;;;20.20;18.08;;;;;;;19.03;46.00;102083.56;5261779;28;20025;-75
2022/05/05 16:08:37;;;;;;;21.92;19.77;;;;;;;19.09;46.09;102088.72;5254045;28;20037;-75
2022/05/05 16:11:08;;;;;;;18.48;16.67;;;;;;;19.01;44.94;102085.84;5254587;28;20025;-75
2022/05/05 16:13:40;;;;;;;19.05;17.35;;;;;;;19.00;45.68;102079.41;5253481;28;20453;-76
2022/05/05 16:16:14;;;;;;;18.90;16.80;;;;;;;18.96;45.25;102081.16;5259057;28;20028;-76
2022/05/05 16:18:45;;;;;;;17.85;14.65;;;;;;;18.84;44.97;102086.50;5246262;28;20468;-76
2022/05/05 16:21:16;;;;;;;15.25;13.65;;;;;;;18.92;44.77;102088.59;5259259;28;20052;-75
2022/05/05 16:23:48;;;;;;;16.20;14.45;;;;;;;18.92;44.75;102094.19;5258870;28;20082;-74
2022/05/05 16:32:07;;;;;;;19.10;17.13;;;;;;;18.88;44.77;102095.97;5243399;28;20035;-76
2022/05/05 16:34:39;;;;;;;18.92;17.05;;;;;;;18.84;45.33;102101.41;5260296;28;20115;-76
2022/05/05 16:37:10;;;;;;;18.67;16.98;;;;;;;18.79;45.43;102106.28;5259686;28;20445;-76
2022/05/05 16:39:41;;;;;;;17.88;16.10;;;;;;;18.86;45.57;102101.06;5265145;28;20112;-76
2022/05/05 16:42:12;;;;;;;17.80;15.80;;;;;;;18.92;45.71;102105.44;5252903;28;20025;-76
2022/05/05 16:44:44;;;;;;;18.65;16.95;;;;;;;18.91;45.68;102109.38;5258334;28;20036;-76
2022/05/05 16:47:15;;;;;;;18.63;16.67;;;;;;;18.93;45.38;102101.47;5258430;28;20026;-76
2022/05/05 16:49:47;;;;;;;19.10;15.93;;;;;;;18.99;45.83;102108.63;5250135;28;20068;-82
2022/05/05 16:52:19;;;;;;;18.33;16.73;;;;;;;18.96;45.60;102103.66;5269634;28;20055;-80
2022/05/05 16:54:51;;;;;;;19.17;16.77;;;;;;;18.99;45.68;102110.63;5274525;28;20044;-80
2022/05/05 16:57:22;;;;;;;16.92;15.23;;;;;;;19.22;45.56;102109.50;5252883;28;20485;-74
2022/05/05 16:59:53;;;;;;;20.38;17.13;;;;;;;19.33;45.36;102104.47;5260054;28;20035;-75
2022/05/05 17:02:25;;;;;;;19.63;15.98;;;;;;;19.45;45.27;102107.53;5265235;28;20060;-77
2022/05/05 17:04:56;;;;;;;16.38;14.77;;;;;;;19.54;44.69;102096.34;5252543;28;20037;-76
2022/05/05 17:07:28;;;;;;;19.00;17.15;;;;;;;19.53;44.69;102098.34;5243756;28;20084;-75
2022/05/05 17:10:00;;;;;;;18.20;16.25;;;;;;;19.57;43.83;102097.69;5253367;28;20380;-74
2022/05/05 17:12:31;;;;;;;18.25;16.30;;;;;;;19.73;44.48;102097.00;5259607;28;20035;-75
2022/05/05 17:15:05;;;;;;;17.42;15.80;;;;;;;19.78;43.66;102096.03;5263995;28;20054;-75
2022/05/05 17:17:37;;;;;;;15.93;14.50;;;;;;;19.75;43.13;102105.13;5258551;28;20544;-75
2022/05/05 17:20:09;;;;;;;16.80;13.93;;;;;;;19.70;42.62;102097.63;5263889;28;20025;-77
2022/05/05 17:22:40;;;;;;;14.82;13.30;;;;;;;19.80;42.32;102099.34;5263248;28;20029;-73
2022/05/05 17:25:11;;;;;;;15.05;13.52;;;;;;;19.85;42.36;102099.22;5262474;28;20053;-73
2022/05/05 17:27:43;;;;;;;14.88;13.52;;;;;;;19.83;42.94;102107.16;5243185;28;20507;-73
